createdAt,value
2022-10-18T00:03:00.685Z,96571.97
2022-10-18T00:06:04.825Z,96575.69
2022-10-18T00:09:07.846Z,96571.97
2022-10-18T00:12:10.905Z,96566.88
2022-10-18T00:15:13.940Z,96563.44
2022-10-18T00:18:18.626Z,96557.31
2022-10-18T00:21:23.778Z,96560.22
2022-10-18T00:24:26.861Z,96544.81
2022-10-18T00:27:30.769Z,96544.53
2022-10-18T00:30:33.725Z,96544.81
2022-10-18T00:33:38.234Z,96538.16
2022-10-18T00:36:41.299Z,96533.38
2022-10-18T00:39:44.685Z,96533.38
2022-10-18T00:42:47.768Z,96529.91
2022-10-18T00:45:50.854Z,96537.63
2022-10-18T00:48:57.649Z,96531.78
2022-10-18T00:52:04.743Z,96531.78
2022-10-18T00:55:08.915Z,96523.53
2022-10-18T00:58:14.280Z,96526.97
2022-10-18T01:01:17.382Z,96524.06
2022-10-18T01:04:23.289Z,96515.53
2022-10-18T01:07:39.106Z,96515.53
2022-10-18T01:10:49.414Z,96514.75
2022-10-18T01:14:05.917Z,96511.56
2022-10-18T01:17:14.526Z,96516.06
2022-10-18T01:21:06.782Z,96508.34
2022-10-18T01:28:35.799Z,96505.69
2022-10-18T01:31:46.589Z,96502.78
2022-10-18T01:34:51.982Z,96504.09
2022-10-18T01:37:58.665Z,96504.31
2022-10-18T01:41:04.339Z,96503.78
2022-10-18T01:44:11.689Z,96499.81
2022-10-18T01:47:16.957Z,96503.78
2022-10-18T01:50:30.347Z,96492.34
2022-10-18T01:53:35.478Z,96504.03
2022-10-18T01:56:46.234Z,96502.19
2022-10-18T01:59:59.650Z,96501.38
2022-10-18T02:03:12.955Z,96500.84
2022-10-18T02:06:21.501Z,96497.66
2022-10-18T02:09:31.295Z,96484.38
2022-10-18T02:12:36.235Z,96484.63
2022-10-18T02:15:42.624Z,96482.75
2022-10-18T02:18:51.664Z,96487.03
2022-10-18T02:21:56.253Z,96478.78
2022-10-18T02:25:03.197Z,96474.00
2022-10-18T02:28:07.386Z,96468.69
2022-10-18T02:31:20.466Z,96474.25
2022-10-18T02:34:30.712Z,96466.81
2022-10-18T02:37:36.851Z,96470.53
2022-10-18T02:40:39.964Z,96485.94
2022-10-18T02:43:43.021Z,96482.75
2022-10-18T02:46:46.655Z,96483.53
2022-10-18T02:49:51.141Z,96483.22
2022-10-18T02:52:54.184Z,96483.22
2022-10-18T02:55:57.203Z,96495.97
2022-10-18T02:59:00.184Z,96497.56
2022-10-18T03:02:03.279Z,96484.25
2022-10-18T03:05:08.131Z,96491.72
2022-10-18T03:08:11.136Z,96494.66
2022-10-18T03:11:14.365Z,96491.75
2022-10-18T03:14:17.449Z,96492.25
2022-10-18T03:17:20.607Z,96478.19
2022-10-18T03:20:25.020Z,96482.41
2022-10-18T03:23:28.095Z,96479.94
2022-10-18T03:26:31.150Z,96480.13
2022-10-18T03:29:34.221Z,96479.88
2022-10-18T03:32:37.166Z,96476.19
2022-10-18T03:35:41.729Z,96477.25
2022-10-18T03:38:44.729Z,96480.72
2022-10-18T03:41:48.061Z,96483.63
2022-10-18T03:44:51.134Z,96487.59
2022-10-18T03:47:54.104Z,96490.72
2022-10-18T03:50:58.542Z,96493.13
2022-10-18T03:54:01.590Z,96495.97
2022-10-18T03:57:05.182Z,96494.63
2022-10-18T04:00:09.612Z,96500.44
2022-10-18T04:03:12.674Z,96494.09
2022-10-18T04:06:17.411Z,96505.19
2022-10-18T04:09:20.545Z,96502.16
2022-10-18T04:12:23.734Z,96499.81
2022-10-18T04:15:26.707Z,96492.88
2022-10-18T04:18:29.932Z,96502.75
2022-10-18T04:21:34.306Z,96494.31
2022-10-18T04:24:37.349Z,96492.63
2022-10-18T04:27:40.741Z,96489.13
2022-10-18T04:30:43.767Z,96487.72
2022-10-18T04:33:47.093Z,96491.63
2022-10-18T04:36:51.577Z,96496.69
2022-10-18T04:39:54.606Z,96491.00
2022-10-18T04:42:57.592Z,96482.31
2022-10-18T04:46:00.646Z,96483.59
2022-10-18T04:49:04.107Z,96482.25
2022-10-18T04:52:08.811Z,96476.91
2022-10-18T04:55:11.857Z,96482.13
2022-10-18T04:58:14.849Z,96480.06
2022-10-18T05:01:19.059Z,96467.84
2022-10-18T05:04:22.232Z,96470.97
2022-10-18T05:07:27.048Z,96467.28
2022-10-18T05:10:30.241Z,96475.97
2022-10-18T05:13:33.216Z,96464.50
2022-10-18T05:16:36.219Z,96471.22
2022-10-18T05:19:39.199Z,96472.28
2022-10-18T05:22:43.953Z,96471.97
2022-10-18T05:25:46.972Z,96468.19
2022-10-18T05:28:51.085Z,96474.88
2022-10-18T05:31:54.211Z,96473.28
2022-10-18T05:34:57.258Z,96468.53
2022-10-18T05:38:03.540Z,96473.31
2022-10-18T05:41:07.100Z,96471.16
2022-10-18T05:44:10.610Z,96474.06
2022-10-18T05:47:13.678Z,96483.38
2022-10-18T05:50:16.820Z,96484.44
2022-10-18T05:53:37.810Z,96474.38
2022-10-18T05:56:41.203Z,96483.19
2022-10-18T05:59:45.391Z,96482.75
2022-10-18T06:02:48.406Z,96486.56
2022-10-18T06:05:51.441Z,96478.47
2022-10-18T06:08:55.913Z,96485.47
2022-10-18T06:11:58.896Z,96485.34
2022-10-18T06:15:01.883Z,96485.94
2022-10-18T06:18:05.015Z,96488.47
2022-10-18T06:21:08.887Z,96490.72
2022-10-18T06:24:13.667Z,96492.41
2022-10-18T06:27:16.947Z,96486.13
2022-10-18T06:30:19.929Z,96487.56
2022-10-18T06:33:22.935Z,96487.91
2022-10-18T06:36:26.124Z,96482.34
2022-10-18T06:39:30.556Z,96482.91
2022-10-18T06:42:33.941Z,96486.19
2022-10-18T06:45:37.250Z,96482.81
2022-10-18T06:48:40.806Z,96474.06
2022-10-18T06:51:44.442Z,96477.28
2022-10-18T06:54:48.833Z,96473.06
2022-10-18T06:57:51.824Z,96472.81
2022-10-18T07:00:54.827Z,96479.22
2022-10-18T07:03:58.236Z,96473.09
2022-10-18T07:07:01.250Z,96472.59
2022-10-18T07:10:06.581Z,96468.88
2022-10-18T07:16:34.189Z,96464.66
2022-10-18T07:19:37.223Z,96468.16
2022-10-18T07:22:40.324Z,96469.22
2022-10-18T07:25:44.712Z,96470.00
2022-10-18T07:28:50.184Z,96464.97
2022-10-18T07:31:53.214Z,96464.19
2022-10-18T07:34:56.201Z,96456.19
2022-10-18T07:37:59.452Z,96460.16
2022-10-18T07:41:06.635Z,96457.28
2022-10-18T07:44:09.892Z,96454.06
2022-10-18T07:47:12.961Z,96446.09
2022-10-18T07:50:16.179Z,96447.16
2022-10-18T07:53:19.183Z,96436.50
2022-10-18T07:56:23.752Z,96429.03
2022-10-18T07:59:26.755Z,96428.22
2022-10-18T08:02:29.680Z,96427.94
2022-10-18T08:08:42.395Z,96426.09
2022-10-18T08:11:46.763Z,96420.50
2022-10-18T08:14:49.796Z,96417.84
2022-10-18T08:17:52.913Z,96412.78
2022-10-18T08:20:55.948Z,96407.69
2022-10-18T08:23:59.016Z,96401.56
2022-10-18T08:27:03.428Z,96404.50
2022-10-18T08:30:09.342Z,96397.59
2022-10-18T08:33:12.338Z,96393.63
2022-10-18T08:36:17.061Z,96393.63
2022-10-18T08:39:20.052Z,96387.50
2022-10-18T08:42:45.405Z,96386.41
2022-10-18T08:45:49.071Z,96372.81
2022-10-18T08:48:55.811Z,96366.69
2022-10-18T08:51:59.516Z,96361.94
2022-10-18T08:55:05.269Z,96364.31
2022-10-18T08:58:18.420Z,96356.31
2022-10-18T09:01:31.497Z,96351.00
2022-10-18T09:04:48.165Z,96350.19
2022-10-18T09:08:11.523Z,96342.25
2022-10-18T09:11:26.037Z,96339.06
2022-10-18T09:14:53.460Z,96336.38
2022-10-18T09:18:10.448Z,96338.78
2022-10-18T09:21:22.784Z,96342.75
2022-10-18T09:24:32.619Z,96325.44
2022-10-18T09:27:45.287Z,96333.16
2022-10-18T09:31:01.276Z,96326.50
2022-10-18T09:34:07.720Z,96319.81
2022-10-18T09:37:14.399Z,96316.63
2022-10-18T09:40:22.663Z,96310.00
2022-10-18T09:43:33.639Z,96313.44
2022-10-18T09:46:42.073Z,96312.38
2022-10-18T09:49:48.649Z,96307.31
2022-10-18T09:52:59.880Z,96305.19
2022-10-18T09:56:07.292Z,96301.97
2022-10-18T09:59:32.636Z,96297.72
2022-10-18T10:02:37.066Z,96290.25
2022-10-18T10:05:40.447Z,96278.28
2022-10-18T10:08:44.429Z,96277.16
2022-10-18T10:11:48.856Z,96275.03
2022-10-18T10:14:51.919Z,96270.75
2022-10-18T10:18:02.401Z,96251.00
2022-10-18T10:21:08.402Z,96249.41
2022-10-18T10:24:26.192Z,96241.44
2022-10-18T10:27:35.897Z,96235.03
2022-10-18T10:30:39.640Z,96233.69
2022-10-18T10:33:48.361Z,96222.50
2022-10-18T10:36:53.159Z,96214.50
2022-10-18T10:40:19.841Z,96212.41
2022-10-18T10:43:42.641Z,96210.00
2022-10-18T10:46:45.768Z,96187.66
2022-10-18T10:49:50.235Z,96190.84
2022-10-18T10:52:53.821Z,96186.03
2022-10-18T10:55:59.031Z,96176.72
2022-10-18T10:59:11.173Z,96185.25
2022-10-18T11:02:22.795Z,96179.63
2022-10-18T11:05:30.269Z,96162.84
2022-10-18T11:08:39.171Z,96165.78
2022-10-18T11:11:51.560Z,96158.59
2022-10-18T11:15:03.753Z,96145.78
2022-10-18T11:18:19.481Z,96142.28
2022-10-18T11:21:28.140Z,96137.25
2022-10-18T11:24:31.967Z,96131.91
2022-10-18T11:27:42.391Z,96126.31
2022-10-18T11:30:55.497Z,96120.75
2022-10-18T11:34:16.171Z,96103.22
2022-10-18T11:37:41.771Z,96111.19
2022-10-18T11:40:56.553Z,96096.53
2022-10-18T11:44:03.354Z,96095.75
2022-10-18T11:47:16.971Z,96089.13
2022-10-18T11:50:28.103Z,96081.41
2022-10-18T11:53:40.703Z,96075.31
2022-10-18T11:56:48.747Z,96070.00
2022-10-18T12:00:04.257Z,96063.63
2022-10-18T12:03:23.635Z,96062.56
2022-10-18T12:06:32.069Z,96045.00
2022-10-18T12:09:40.382Z,96046.09
2022-10-18T12:12:51.722Z,96044.50
2022-10-18T12:15:55.821Z,96038.66
2022-10-18T12:19:02.653Z,96036.28
2022-10-18T12:22:15.654Z,96031.00
2022-10-18T12:25:20.752Z,96024.41
2022-10-18T12:28:35.289Z,96013.25
2022-10-18T12:31:43.579Z,96013.81
2022-10-18T12:34:50.505Z,96007.94
2022-10-18T12:38:06.982Z,96012.47
2022-10-18T12:41:20.622Z,96000.22
2022-10-18T12:44:30.825Z,96005.81
2022-10-18T12:47:34.830Z,96000.78
2022-10-18T12:50:39.835Z,95992.00
2022-10-18T12:53:45.453Z,95997.03
2022-10-18T12:56:51.035Z,95989.91
2022-10-18T12:59:53.985Z,95992.56
2022-10-18T13:03:38.488Z,95979.53
2022-10-18T13:07:19.955Z,95985.38
2022-10-18T13:10:41.031Z,95986.97
2022-10-18T13:13:55.723Z,95973.16
2022-10-18T13:17:07.261Z,95970.78
2022-10-18T13:20:26.734Z,95967.03
2022-10-18T13:23:42.890Z,95967.59
2022-10-18T13:27:04.221Z,95958.81
2022-10-18T13:30:34.387Z,95961.47
2022-10-18T13:33:40.103Z,95959.09
2022-10-18T13:36:43.852Z,95955.63
2022-10-18T13:39:47.473Z,95952.19
2022-10-18T13:42:50.766Z,95946.88
2022-10-18T13:45:58.241Z,95935.72
2022-10-18T13:49:16.149Z,95937.56
2022-10-18T13:52:27.063Z,95942.63
2022-10-18T13:55:49.796Z,95936.78
2022-10-18T13:59:22.688Z,95931.47
2022-10-18T14:03:00.401Z,95930.66
2022-10-18T14:06:08.902Z,95929.88
2022-10-18T14:09:26.070Z,95927.50
2022-10-18T14:12:45.283Z,95930.16
2022-10-18T14:15:50.770Z,95925.06
2022-10-18T14:19:02.153Z,95927.72
2022-10-18T14:22:12.621Z,95922.97
2022-10-18T14:25:26.920Z,95926.69
2022-10-18T14:28:48.071Z,95925.06
2022-10-18T14:31:55.728Z,95928.81
2022-10-18T14:35:42.265Z,95921.91
2022-10-18T14:38:23.317Z,95919.53
2022-10-18T14:41:29.711Z,95914.19
2022-10-18T14:44:34.891Z,95913.13
2022-10-18T14:47:38.682Z,95913.91
2022-10-18T14:50:44.245Z,95907.00
2022-10-18T14:53:49.032Z,95903.84
2022-10-18T14:56:52.235Z,95909.94
2022-10-18T14:59:59.575Z,95906.50
2022-10-18T15:03:04.441Z,95904.13
2022-10-18T15:06:09.650Z,95903.31
2022-10-18T15:09:14.151Z,95898.50
2022-10-18T15:12:19.506Z,95896.38
2022-10-18T15:15:26.604Z,95895.81
2022-10-18T15:21:37.162Z,95892.53
2022-10-18T15:24:41.560Z,95881.34
2022-10-18T15:27:47.555Z,95888.78
2022-10-18T15:30:50.637Z,95883.19
2022-10-18T15:33:54.889Z,95879.47
2022-10-18T15:36:59.325Z,95880.28
2022-10-18T15:40:32.869Z,95878.16
2022-10-18T15:43:37.949Z,95877.09
2022-10-18T15:46:41.184Z,95877.63
2022-10-18T15:49:55.348Z,95879.75
2022-10-18T15:53:40.616Z,95877.66
2022-10-18T15:56:44.858Z,95877.13
2022-10-18T15:59:53.560Z,95880.06
2022-10-18T16:02:56.593Z,95888.63
2022-10-18T16:06:04.611Z,95889.44
2022-10-18T16:09:14.096Z,95899.81
2022-10-18T16:12:17.167Z,95902.53
2022-10-18T16:15:20.396Z,95902.81
2022-10-18T16:18:25.175Z,95903.88
2022-10-18T16:21:31.339Z,95906.53
2022-10-18T16:24:35.729Z,95907.59
2022-10-18T16:27:38.752Z,95912.94
2022-10-18T16:30:44.698Z,95906.03
2022-10-18T16:33:48.333Z,95909.53
2022-10-18T16:36:51.377Z,95909.03
2022-10-18T16:39:55.798Z,95901.53
2022-10-18T16:42:58.822Z,95910.53
2022-10-18T16:46:02.451Z,95907.53
2022-10-18T16:49:06.818Z,95917.56
2022-10-18T16:52:09.869Z,95915.16
2022-10-18T16:55:21.403Z,95908.31
2022-10-18T16:58:25.124Z,95913.81
2022-10-18T17:01:28.714Z,95919.88
2022-10-18T17:04:31.740Z,95919.31
2022-10-18T17:07:34.762Z,95912.41
2022-10-18T17:10:39.154Z,95919.31
2022-10-18T17:13:42.559Z,95913.47
2022-10-18T17:16:48.720Z,95912.09
2022-10-18T17:19:56.371Z,95916.56
2022-10-18T17:22:59.499Z,95910.94
2022-10-18T17:26:26.221Z,95910.66
2022-10-18T17:29:27.040Z,95908.72
2022-10-18T17:32:30.508Z,95904.25
2022-10-18T17:35:33.872Z,95904.75
2022-10-18T17:38:36.933Z,95906.63
2022-10-18T17:41:41.349Z,95908.50
2022-10-18T17:44:44.475Z,95899.44
2022-10-18T17:47:47.847Z,95907.41
2022-10-18T17:50:50.905Z,95901.00
2022-10-18T17:53:54.984Z,95903.16
2022-10-18T17:56:59.411Z,95901.56
2022-10-18T18:00:03.223Z,95901.56
2022-10-18T18:03:06.503Z,95902.63
2022-10-18T18:06:17.790Z,95898.63
2022-10-18T18:09:21.282Z,95895.44
2022-10-18T18:12:25.669Z,95895.81
2022-10-18T18:15:28.884Z,95893.16
2022-10-18T18:18:31.882Z,95899.81
2022-10-18T18:21:35.742Z,95893.41
2022-10-18T18:27:42.871Z,95888.53
2022-10-18T18:30:45.820Z,95894.38
2022-10-18T18:33:48.826Z,95892.53
2022-10-18T18:36:51.987Z,95888.78
2022-10-18T18:39:55.040Z,95883.47
2022-10-18T18:43:19.049Z,95881.34
2022-10-18T18:46:23.263Z,95885.41
2022-10-18T18:49:27.970Z,95883.34
2022-10-18T18:52:31.349Z,95871.13
2022-10-18T18:55:39.710Z,95883.13
2022-10-18T18:58:45.546Z,95881.00
2022-10-18T19:01:48.605Z,95877.03
2022-10-18T19:04:51.893Z,95887.97
2022-10-18T19:07:54.991Z,95878.63
2022-10-18T19:10:57.997Z,95882.38
2022-10-18T19:14:03.358Z,95887.19
2022-10-18T19:17:07.981Z,95884.78
2022-10-18T19:20:12.812Z,95881.63
2022-10-18T19:23:16.295Z,95877.66
2022-10-18T19:26:32.063Z,95879.50
2022-10-18T19:29:39.164Z,95880.59
2022-10-18T19:32:42.161Z,95884.31
2022-10-18T19:35:45.303Z,95889.13
2022-10-18T19:38:48.409Z,95883.25
2022-10-18T19:41:53.196Z,95883.53
2022-10-18T19:44:57.713Z,95880.06
2022-10-18T19:48:00.704Z,95878.50
2022-10-18T19:51:09.443Z,95870.78
2022-10-18T19:54:14.303Z,95860.44
2022-10-18T19:57:17.302Z,95867.63
2022-10-18T20:00:21.790Z,95860.72
2022-10-18T20:03:26.062Z,95859.91
2022-10-18T20:06:29.111Z,95854.88
2022-10-18T20:09:32.450Z,95861.25
2022-10-18T20:12:36.469Z,95854.38
2022-10-18T20:15:40.837Z,95852.78
2022-10-18T20:18:44.335Z,95853.84
2022-10-18T20:21:47.349Z,95847.72
2022-10-18T20:24:50.395Z,95841.06
2022-10-18T20:27:53.439Z,95838.69
2022-10-18T20:31:05.844Z,95842.16
2022-10-18T20:34:12.306Z,95837.91
2022-10-18T20:37:15.786Z,95831.78
2022-10-18T20:40:19.022Z,95842.97
2022-10-18T20:43:22.023Z,95835.81
2022-10-18T20:46:27.506Z,95837.66
2022-10-18T20:49:30.588Z,95833.41
2022-10-18T20:52:33.766Z,95835.56
2022-10-18T20:55:38.796Z,95823.06
2022-10-18T20:58:45.520Z,95828.38
2022-10-18T21:01:50.007Z,95829.16
2022-10-18T21:04:53.422Z,95832.06
2022-10-18T21:07:56.486Z,95822.28
2022-10-18T21:11:02.152Z,95818.00
2022-10-18T21:14:06.382Z,95827.59
2022-10-18T21:17:10.778Z,95825.19
2022-10-18T21:20:13.814Z,95813.75
2022-10-18T21:23:17.133Z,95810.31
2022-10-18T21:26:21.998Z,95802.59
2022-10-18T21:29:25.735Z,95807.13
2022-10-18T21:32:30.326Z,95801.53
2022-10-18T21:35:36.291Z,95802.59
2022-10-18T21:38:39.562Z,95793.03
2022-10-18T21:41:42.946Z,95793.03
2022-10-18T21:44:45.974Z,95786.16
2022-10-18T21:47:50.510Z,95786.16
2022-10-18T21:50:53.534Z,95778.16
2022-10-18T21:53:58.184Z,95781.63
2022-10-18T21:57:01.189Z,95776.84
2022-10-18T22:00:06.651Z,95769.41
2022-10-18T22:03:12.855Z,95762.25
2022-10-18T22:06:16.836Z,95766.22
2022-10-18T22:09:21.271Z,95759.59
2022-10-18T22:12:24.296Z,95757.44
2022-10-18T22:15:27.492Z,95756.66
2022-10-18T22:18:33.125Z,95752.41
2022-10-18T22:21:36.465Z,95746.28
2022-10-18T22:24:39.594Z,95746.28
2022-10-18T22:27:42.612Z,95743.91
2022-10-18T22:30:45.575Z,95743.91
2022-10-18T22:33:54.174Z,95734.88
2022-10-18T22:36:57.374Z,95727.97
2022-10-18T22:40:00.399Z,95728.25
2022-10-18T22:43:03.402Z,95733.56
2022-10-18T22:46:08.738Z,95733.56
2022-10-18T22:49:13.503Z,95718.97
2022-10-18T22:52:16.502Z,95713.94
2022-10-18T22:55:19.518Z,95717.13
2022-10-18T22:58:22.871Z,95712.88
2022-10-18T23:01:26.087Z,95712.06
2022-10-18T23:04:30.510Z,95713.94
2022-10-18T23:07:33.566Z,95707.84
2022-10-18T23:10:37.928Z,95709.69
2022-10-18T23:13:40.954Z,95706.25
2022-10-18T23:16:44.484Z,95704.38
2022-10-18T23:19:48.984Z,95703.59
2022-10-18T23:22:52.353Z,95699.63
2022-10-18T23:25:55.408Z,95704.66
2022-10-18T23:28:58.602Z,95704.66
2022-10-18T23:32:01.697Z,95707.59
2022-10-18T23:35:06.876Z,95699.13
2022-10-18T23:38:09.873Z,95696.47
2022-10-18T23:41:14.816Z,95694.59
2022-10-18T23:44:17.794Z,95682.63
2022-10-18T23:47:21.198Z,95680.78
2022-10-18T23:50:25.747Z,95678.38
2022-10-18T23:53:29.390Z,95682.13
2022-10-18T23:56:32.406Z,95669.13
2022-10-18T23:59:35.411Z,95676.25
